sensor_id;sensor_type;location;lat;lon;timestamp;pressure;altitude;pressure_sealevel;temperature;humidity
81230;BME280;70701;44.452;18.652;2024-03-02T00:01:09;98205.06;;;9.08;70.94
81230;BME280;70701;44.452;18.652;2024-03-02T00:03:36;98208.16;;;9.10;71.26
81230;BME280;70701;44.452;18.652;2024-03-02T00:06:02;98212.75;;;9.04;71.61
81230;BME280;70701;44.452;18.652;2024-03-02T00:08:29;98220.19;;;9.07;71.13
81230;BME280;70701;44.452;18.652;2024-03-02T00:10:59;98217.72;;;9.22;70.98
81230;BME280;70701;44.452;18.652;2024-03-02T00:13:26;98222.16;;;9.19;71.00
81230;BME280;70701;44.452;18.652;2024-03-02T00:15:53;98229.19;;;9.11;71.25
81230;BME280;70701;44.452;18.652;2024-03-02T00:20:47;98211.75;;;8.98;71.90
81230;BME280;70701;44.452;18.652;2024-03-02T00:23:16;98220.31;;;9.03;72.03
81230;BME280;70701;44.452;18.652;2024-03-02T00:25:47;98227.28;;;9.08;71.41
81230;BME280;70701;44.452;18.652;2024-03-02T00:28:25;98226.06;;;9.09;71.50
81230;BME280;70701;44.452;18.652;2024-03-02T00:33:21;98223.50;;;9.14;71.72
81230;BME280;70701;44.452;18.652;2024-03-02T00:35:49;98220.06;;;9.10;71.01
81230;BME280;70701;44.452;18.652;2024-03-02T00:38:15;98223.41;;;9.05;72.07
81230;BME280;70701;44.452;18.652;2024-03-02T00:40:45;98220.53;;;9.09;71.38
81230;BME280;70701;44.452;18.652;2024-03-02T00:46:01;98225.50;;;9.14;71.68
81230;BME280;70701;44.452;18.652;2024-03-02T00:48:27;98216.66;;;8.93;72.12
81230;BME280;70701;44.452;18.652;2024-03-02T00:50:52;98219.94;;;9.14;71.62
81230;BME280;70701;44.452;18.652;2024-03-02T00:53:21;98233.06;;;9.13;69.70
81230;BME280;70701;44.452;18.652;2024-03-02T00:55:50;98235.28;;;9.06;69.75
81230;BME280;70701;44.452;18.652;2024-03-02T00:58:15;98220.53;;;8.83;70.35
81230;BME280;70701;44.452;18.652;2024-03-02T01:00:44;98212.19;;;8.70;69.80
81230;BME280;70701;44.452;18.652;2024-03-02T01:03:10;98229.97;;;8.86;69.35
81230;BME280;70701;44.452;18.652;2024-03-02T01:05:36;98219.47;;;8.38;71.40
81230;BME280;70701;44.452;18.652;2024-03-02T01:08:02;98222.84;;;8.72;70.54
81230;BME280;70701;44.452;18.652;2024-03-02T01:10:28;98231.19;;;8.85;69.97
81230;BME280;70701;44.452;18.652;2024-03-02T01:12:54;98228.41;;;8.72;70.39
81230;BME280;70701;44.452;18.652;2024-03-02T01:15:19;98240.63;;;8.74;70.28
81230;BME280;70701;44.452;18.652;2024-03-02T01:17:45;98227.44;;;8.79;69.87
81230;BME280;70701;44.452;18.652;2024-03-02T01:20:11;98234.22;;;8.35;71.82
81230;BME280;70701;44.452;18.652;2024-03-02T01:22:36;98243.94;;;8.44;72.17
81230;BME280;70701;44.452;18.652;2024-03-02T01:25:03;98246.44;;;8.38;71.64
81230;BME280;70701;44.452;18.652;2024-03-02T01:27:29;98240.53;;;7.65;75.60
81230;BME280;70701;44.452;18.652;2024-03-02T01:29:55;98239.94;;;7.86;75.84
81230;BME280;70701;44.452;18.652;2024-03-02T01:32:21;98224.66;;;8.24;73.54
81230;BME280;70701;44.452;18.652;2024-03-02T01:34:46;98229.63;;;8.16;73.45
81230;BME280;70701;44.452;18.652;2024-03-02T01:37:12;98234.81;;;7.72;75.64
81230;BME280;70701;44.452;18.652;2024-03-02T01:39:37;98229.56;;;7.90;75.57
81230;BME280;70701;44.452;18.652;2024-03-02T01:42:03;98224.31;;;7.34;77.86
81230;BME280;70701;44.452;18.652;2024-03-02T01:44:29;98210.81;;;7.65;77.07
81230;BME280;70701;44.452;18.652;2024-03-02T01:46:54;98218.16;;;8.01;75.91
81230;BME280;70701;44.452;18.652;2024-03-02T01:49:20;98215.00;;;7.86;75.79
81230;BME280;70701;44.452;18.652;2024-03-02T01:51:46;98212.94;;;8.03;75.58
81230;BME280;70701;44.452;18.652;2024-03-02T01:54:12;98201.38;;;7.63;77.22
81230;BME280;70701;44.452;18.652;2024-03-02T01:56:38;98206.78;;;7.53;78.22
81230;BME280;70701;44.452;18.652;2024-03-02T01:59:03;98208.63;;;7.73;77.38
81230;BME280;70701;44.452;18.652;2024-03-02T02:01:29;98195.34;;;7.51;78.00
81230;BME280;70701;44.452;18.652;2024-03-02T02:03:55;98217.28;;;7.46;79.10
81230;BME280;70701;44.452;18.652;2024-03-02T02:06:20;98205.75;;;7.47;78.68
81230;BME280;70701;44.452;18.652;2024-03-02T02:08:47;98212.25;;;7.24;79.73
81230;BME280;70701;44.452;18.652;2024-03-02T02:11:16;98204.53;;;7.32;79.62
81230;BME280;70701;44.452;18.652;2024-03-02T02:13:42;98206.72;;;7.24;80.24
81230;BME280;70701;44.452;18.652;2024-03-02T02:16:08;98207.47;;;7.41;79.83
81230;BME280;70701;44.452;18.652;2024-03-02T02:18:35;98201.13;;;7.86;77.02
81230;BME280;70701;44.452;18.652;2024-03-02T02:21:02;98201.97;;;8.00;76.75
81230;BME280;70701;44.452;18.652;2024-03-02T02:23:27;98206.13;;;8.21;75.63
81230;BME280;70701;44.452;18.652;2024-03-02T02:25:53;98205.34;;;8.33;74.82
81230;BME280;70701;44.452;18.652;2024-03-02T02:28:19;98210.22;;;8.29;75.03
81230;BME280;70701;44.452;18.652;2024-03-02T02:30:44;98215.34;;;8.30;74.58
81230;BME280;70701;44.452;18.652;2024-03-02T02:33:10;98198.13;;;8.23;74.31
81230;BME280;70701;44.452;18.652;2024-03-02T02:35:36;98211.56;;;8.24;73.64
81230;BME280;70701;44.452;18.652;2024-03-02T02:38:02;98215.31;;;8.17;73.64
81230;BME280;70701;44.452;18.652;2024-03-02T02:40:28;98214.50;;;7.75;75.53
81230;BME280;70701;44.452;18.652;2024-03-02T02:42:57;98216.31;;;7.82;76.03
81230;BME280;70701;44.452;18.652;2024-03-02T02:45:25;98215.34;;;7.88;76.27
81230;BME280;70701;44.452;18.652;2024-03-02T02:47:51;98221.91;;;7.94;76.37
81230;BME280;70701;44.452;18.652;2024-03-02T02:50:17;98220.34;;;7.93;76.60
81230;BME280;70701;44.452;18.652;2024-03-02T02:52:43;98210.44;;;7.79;76.99
81230;BME280;70701;44.452;18.652;2024-03-02T02:55:10;98218.16;;;7.72;77.26
81230;BME280;70701;44.452;18.652;2024-03-02T02:57:38;98214.41;;;7.78;76.79
81230;BME280;70701;44.452;18.652;2024-03-02T03:00:09;98220.09;;;7.88;76.52
81230;BME280;70701;44.452;18.652;2024-03-02T03:02:42;98223.06;;;7.81;77.30
81230;BME280;70701;44.452;18.652;2024-03-02T03:05:09;98220.03;;;7.75;77.65
81230;BME280;70701;44.452;18.652;2024-03-02T03:07:35;98223.06;;;7.81;77.62
81230;BME280;70701;44.452;18.652;2024-03-02T03:10:03;98218.75;;;7.79;77.22
81230;BME280;70701;44.452;18.652;2024-03-02T03:12:31;98217.53;;;7.81;77.03
81230;BME280;70701;44.452;18.652;2024-03-02T03:14:58;98220.44;;;7.90;76.69
81230;BME280;70701;44.452;18.652;2024-03-02T03:17:25;98218.81;;;7.92;76.37
81230;BME280;70701;44.452;18.652;2024-03-02T03:19:51;98216.47;;;7.91;76.33
81230;BME280;70701;44.452;18.652;2024-03-02T03:22:17;98224.00;;;7.90;76.55
81230;BME280;70701;44.452;18.652;2024-03-02T03:24:43;98231.44;;;7.93;76.21
81230;BME280;70701;44.452;18.652;2024-03-02T03:27:09;98224.69;;;7.94;76.12
81230;BME280;70701;44.452;18.652;2024-03-02T03:29:38;98236.94;;;7.81;76.30
81230;BME280;70701;44.452;18.652;2024-03-02T03:32:04;98205.16;;;7.69;76.78
81230;BME280;70701;44.452;18.652;2024-03-02T03:34:35;98227.41;;;7.82;75.86
81230;BME280;70701;44.452;18.652;2024-03-02T03:37:02;98229.44;;;7.65;77.28
81230;BME280;70701;44.452;18.652;2024-03-02T03:39:29;98236.41;;;7.56;77.79
81230;BME280;70701;44.452;18.652;2024-03-02T03:41:55;98250.13;;;7.76;77.39
81230;BME280;70701;44.452;18.652;2024-03-02T03:44:20;98242.06;;;7.66;77.81
81230;BME280;70701;44.452;18.652;2024-03-02T03:46:46;98236.69;;;7.75;77.40
81230;BME280;70701;44.452;18.652;2024-03-02T03:49:11;98234.50;;;7.37;78.57
81230;BME280;70701;44.452;18.652;2024-03-02T03:51:37;98234.06;;;7.38;79.16
81230;BME280;70701;44.452;18.652;2024-03-02T03:54:03;98245.97;;;7.68;78.66
81230;BME280;70701;44.452;18.652;2024-03-02T03:56:28;98235.19;;;7.87;76.69
81230;BME280;70701;44.452;18.652;2024-03-02T03:58:54;98247.66;;;7.95;75.68
81230;BME280;70701;44.452;18.652;2024-03-02T04:01:19;98243.28;;;7.81;75.88
81230;BME280;70701;44.452;18.652;2024-03-02T04:03:48;98255.41;;;7.71;76.81
81230;BME280;70701;44.452;18.652;2024-03-02T04:06:15;98246.25;;;7.41;77.97
81230;BME280;70701;44.452;18.652;2024-03-02T04:08:42;98246.25;;;7.57;76.93
81230;BME280;70701;44.452;18.652;2024-03-02T04:11:08;98254.56;;;7.57;77.19
81230;BME280;70701;44.452;18.652;2024-03-02T04:13:34;98255.44;;;7.54;77.46
81230;BME280;70701;44.452;18.652;2024-03-02T04:16:00;98253.31;;;7.75;76.14
81230;BME280;70701;44.452;18.652;2024-03-02T04:18:26;98262.28;;;7.66;76.51
81230;BME280;70701;44.452;18.652;2024-03-02T04:20:52;98261.44;;;7.53;77.07
81230;BME280;70701;44.452;18.652;2024-03-02T04:23:17;98259.53;;;7.50;76.69
81230;BME280;70701;44.452;18.652;2024-03-02T04:25:43;98255.38;;;7.42;76.98
81230;BME280;70701;44.452;18.652;2024-03-02T04:28:09;98257.63;;;7.30;77.22
81230;BME280;70701;44.452;18.652;2024-03-02T04:30:35;98268.38;;;7.28;78.21
81230;BME280;70701;44.452;18.652;2024-03-02T04:33:00;98271.16;;;7.28;77.75
81230;BME280;70701;44.452;18.652;2024-03-02T04:35:27;98261.25;;;7.11;78.79
81230;BME280;70701;44.452;18.652;2024-03-02T04:37:54;98258.41;;;7.14;78.60
81230;BME280;70701;44.452;18.652;2024-03-02T04:40:19;98266.44;;;7.09;78.50
81230;BME280;70701;44.452;18.652;2024-03-02T04:42:46;98280.31;;;7.25;77.01
81230;BME280;70701;44.452;18.652;2024-03-02T04:45:13;98289.63;;;6.98;78.39
81230;BME280;70701;44.452;18.652;2024-03-02T04:47:39;98289.56;;;7.02;78.74
81230;BME280;70701;44.452;18.652;2024-03-02T04:50:06;98277.41;;;6.96;78.79
81230;BME280;70701;44.452;18.652;2024-03-02T04:52:33;98273.91;;;6.75;78.82
81230;BME280;70701;44.452;18.652;2024-03-02T04:54:58;98293.59;;;6.97;77.36
81230;BME280;70701;44.452;18.652;2024-03-02T04:57:56;98304.75;;;6.94;78.19
81230;BME280;70701;44.452;18.652;2024-03-02T05:00:22;98304.81;;;6.74;79.28
81230;BME280;70701;44.452;18.652;2024-03-02T05:02:47;98290.94;;;6.57;79.64
81230;BME280;70701;44.452;18.652;2024-03-02T05:05:13;98311.41;;;6.80;79.51
81230;BME280;70701;44.452;18.652;2024-03-02T05:07:41;98316.31;;;6.72;79.44
81230;BME280;70701;44.452;18.652;2024-03-02T05:10:08;98317.78;;;6.77;79.92
81230;BME280;70701;44.452;18.652;2024-03-02T05:12:34;98312.47;;;6.66;79.43
81230;BME280;70701;44.452;18.652;2024-03-02T05:15:20;98318.59;;;6.57;79.94
81230;BME280;70701;44.452;18.652;2024-03-02T05:17:47;98328.78;;;6.80;79.78
81230;BME280;70701;44.452;18.652;2024-03-02T05:20:13;98319.22;;;6.65;79.65
81230;BME280;70701;44.452;18.652;2024-03-02T05:22:39;98325.25;;;6.60;80.29
81230;BME280;70701;44.452;18.652;2024-03-02T05:25:06;98313.97;;;6.71;79.70
81230;BME280;70701;44.452;18.652;2024-03-02T05:27:32;98327.88;;;6.47;80.85
81230;BME280;70701;44.452;18.652;2024-03-02T05:29:59;98330.03;;;6.59;81.55
81230;BME280;70701;44.452;18.652;2024-03-02T05:32:25;98328.97;;;6.90;79.96
81230;BME280;70701;44.452;18.652;2024-03-02T05:34:50;98331.56;;;6.80;79.93
81230;BME280;70701;44.452;18.652;2024-03-02T05:37:17;98327.53;;;7.01;78.47
81230;BME280;70701;44.452;18.652;2024-03-02T05:39:42;98323.56;;;7.03;78.33
81230;BME280;70701;44.452;18.652;2024-03-02T05:42:08;98323.72;;;6.95;78.52
81230;BME280;70701;44.452;18.652;2024-03-02T05:44:35;98326.91;;;6.94;78.98
81230;BME280;70701;44.452;18.652;2024-03-02T05:47:01;98345.59;;;6.90;79.63
81230;BME280;70701;44.452;18.652;2024-03-02T05:49:26;98340.44;;;6.72;79.10
81230;BME280;70701;44.452;18.652;2024-03-02T05:51:52;98335.34;;;6.50;81.35
81230;BME280;70701;44.452;18.652;2024-03-02T05:54:19;98342.78;;;6.33;82.24
81230;BME280;70701;44.452;18.652;2024-03-02T05:56:44;98347.31;;;6.43;83.16
81230;BME280;70701;44.452;18.652;2024-03-02T05:59:11;98338.13;;;6.87;79.83
81230;BME280;70701;44.452;18.652;2024-03-02T06:01:42;98348.34;;;7.10;79.14
81230;BME280;70701;44.452;18.652;2024-03-02T06:04:11;98351.34;;;6.99;78.38
81230;BME280;70701;44.452;18.652;2024-03-02T06:06:37;98356.53;;;7.50;83.87
81230;BME280;70701;44.452;18.652;2024-03-02T06:09:03;98358.50;;;7.82;81.13
81230;BME280;70701;44.452;18.652;2024-03-02T06:11:41;98363.00;;;7.76;77.53
81230;BME280;70701;44.452;18.652;2024-03-02T06:14:08;98374.59;;;7.54;77.88
81230;BME280;70701;44.452;18.652;2024-03-02T06:16:34;98363.97;;;7.53;76.68
81230;BME280;70701;44.452;18.652;2024-03-02T06:19:00;98372.59;;;7.22;77.93
81230;BME280;70701;44.452;18.652;2024-03-02T06:21:27;98377.44;;;7.18;78.60
81230;BME280;70701;44.452;18.652;2024-03-02T06:23:53;98366.72;;;7.36;79.52
81230;BME280;70701;44.452;18.652;2024-03-02T06:26:20;98364.84;;;7.66;78.69
81230;BME280;70701;44.452;18.652;2024-03-02T06:28:46;98371.00;;;7.74;76.73
81230;BME280;70701;44.452;18.652;2024-03-02T06:31:12;98352.00;;;7.72;77.27
81230;BME280;70701;44.452;18.652;2024-03-02T06:33:38;98372.09;;;7.60;77.50
81230;BME280;70701;44.452;18.652;2024-03-02T06:36:04;98373.75;;;7.74;77.09
81230;BME280;70701;44.452;18.652;2024-03-02T06:38:30;98373.75;;;7.57;78.09
81230;BME280;70701;44.452;18.652;2024-03-02T06:40:58;98366.31;;;7.71;78.77
81230;BME280;70701;44.452;18.652;2024-03-02T06:43:24;98371.34;;;7.92;77.96
81230;BME280;70701;44.452;18.652;2024-03-02T06:45:51;98371.41;;;7.72;76.42
81230;BME280;70701;44.452;18.652;2024-03-02T06:48:17;98382.13;;;7.37;77.81
81230;BME280;70701;44.452;18.652;2024-03-02T06:50:49;98380.59;;;7.36;77.83
81230;BME280;70701;44.452;18.652;2024-03-02T06:53:15;98367.56;;;7.33;77.92
81230;BME280;70701;44.452;18.652;2024-03-02T06:55:43;98368.72;;;7.36;77.42
81230;BME280;70701;44.452;18.652;2024-03-02T06:58:13;98381.88;;;7.48;77.57
81230;BME280;70701;44.452;18.652;2024-03-02T07:00:42;98370.28;;;7.53;76.92
81230;BME280;70701;44.452;18.652;2024-03-02T07:03:10;98387.19;;;7.75;77.09
81230;BME280;70701;44.452;18.652;2024-03-02T07:05:37;98398.63;;;7.77;76.69
81230;BME280;70701;44.452;18.652;2024-03-02T07:08:02;98402.94;;;7.95;76.02
81230;BME280;70701;44.452;18.652;2024-03-02T07:10:30;98383.09;;;7.96;75.43
81230;BME280;70701;44.452;18.652;2024-03-02T07:12:56;98400.09;;;8.15;74.80
81230;BME280;70701;44.452;18.652;2024-03-02T07:15:21;98396.88;;;8.16;75.55
81230;BME280;70701;44.452;18.652;2024-03-02T07:18:07;98398.41;;;8.17;75.73
81230;BME280;70701;44.452;18.652;2024-03-02T07:20:34;98392.44;;;8.19;75.99
81230;BME280;70701;44.452;18.652;2024-03-02T07:23:00;98394.88;;;8.17;76.72
81230;BME280;70701;44.452;18.652;2024-03-02T07:25:25;98378.13;;;8.21;76.58
81230;BME280;70701;44.452;18.652;2024-03-02T07:27:51;98397.81;;;8.26;76.72
81230;BME280;70701;44.452;18.652;2024-03-02T07:30:17;98396.59;;;8.27;76.94
81230;BME280;70701;44.452;18.652;2024-03-02T07:32:42;98404.56;;;8.25;76.66
81230;BME280;70701;44.452;18.652;2024-03-02T07:35:14;98398.06;;;8.32;76.30
81230;BME280;70701;44.452;18.652;2024-03-02T07:37:41;98405.41;;;8.55;74.71
81230;BME280;70701;44.452;18.652;2024-03-02T07:40:07;98409.59;;;8.47;74.37
81230;BME280;70701;44.452;18.652;2024-03-02T07:42:40;98405.81;;;8.53;75.35
81230;BME280;70701;44.452;18.652;2024-03-02T07:45:06;98406.13;;;8.72;73.70
81230;BME280;70701;44.452;18.652;2024-03-02T07:47:35;98410.09;;;9.00;73.43
81230;BME280;70701;44.452;18.652;2024-03-02T07:50:02;98405.28;;;9.56;73.96
81230;BME280;70701;44.452;18.652;2024-03-02T07:52:28;98409.25;;;9.93;72.76
81230;BME280;70701;44.452;18.652;2024-03-02T07:54:54;98400.28;;;10.11;71.82
81230;BME280;70701;44.452;18.652;2024-03-02T07:57:20;98403.19;;;10.07;71.06
81230;BME280;70701;44.452;18.652;2024-03-02T07:59:46;98395.78;;;9.91;69.82
81230;BME280;70701;44.452;18.652;2024-03-02T08:02:12;98412.44;;;10.04;68.50
81230;BME280;70701;44.452;18.652;2024-03-02T08:04:38;98407.75;;;10.14;68.09
81230;BME280;70701;44.452;18.652;2024-03-02T08:07:04;98405.63;;;10.31;67.17
81230;BME280;70701;44.452;18.652;2024-03-02T08:09:30;98409.38;;;10.37;66.31
81230;BME280;70701;44.452;18.652;2024-03-02T08:11:55;98414.63;;;10.35;66.47
81230;BME280;70701;44.452;18.652;2024-03-02T08:14:23;98407.56;;;10.43;66.71
81230;BME280;70701;44.452;18.652;2024-03-02T08:16:48;98401.50;;;10.58;66.18
81230;BME280;70701;44.452;18.652;2024-03-02T08:19:14;98406.13;;;10.74;65.23
81230;BME280;70701;44.452;18.652;2024-03-02T08:21:40;98393.03;;;10.61;65.64
81230;BME280;70701;44.452;18.652;2024-03-02T08:24:06;98408.19;;;10.82;65.17
81230;BME280;70701;44.452;18.652;2024-03-02T08:26:32;98407.31;;;11.89;68.92
81230;BME280;70701;44.452;18.652;2024-03-02T08:28:59;98405.28;;;12.48;71.46
81230;BME280;70701;44.452;18.652;2024-03-02T08:31:24;98402.66;;;12.44;69.82
81230;BME280;70701;44.452;18.652;2024-03-02T08:33:50;98402.16;;;12.18;62.91
81230;BME280;70701;44.452;18.652;2024-03-02T08:36:15;98401.09;;;11.75;63.63
81230;BME280;70701;44.452;18.652;2024-03-02T08:38:41;98414.69;;;11.64;64.07
81230;BME280;70701;44.452;18.652;2024-03-02T08:41:08;98406.91;;;11.59;63.35
81230;BME280;70701;44.452;18.652;2024-03-02T08:43:34;98404.16;;;11.68;61.90
81230;BME280;70701;44.452;18.652;2024-03-02T08:46:02;98388.53;;;11.80;62.06
81230;BME280;70701;44.452;18.652;2024-03-02T08:48:28;98401.44;;;11.86;61.27
81230;BME280;70701;44.452;18.652;2024-03-02T08:50:53;98393.50;;;11.85;61.39
81230;BME280;70701;44.452;18.652;2024-03-02T08:53:20;98400.25;;;12.06;60.48
81230;BME280;70701;44.452;18.652;2024-03-02T08:55:46;98398.22;;;12.06;60.56
81230;BME280;70701;44.452;18.652;2024-03-02T08:58:12;98401.22;;;12.21;59.53
81230;BME280;70701;44.452;18.652;2024-03-02T09:00:38;98390.22;;;12.36;58.71
81230;BME280;70701;44.452;18.652;2024-03-02T09:03:04;98401.56;;;12.60;58.75
81230;BME280;70701;44.452;18.652;2024-03-02T09:05:30;98402.00;;;12.59;59.06
81230;BME280;70701;44.452;18.652;2024-03-02T09:07:56;98394.72;;;12.71;58.21
81230;BME280;70701;44.452;18.652;2024-03-02T09:10:21;98397.19;;;12.87;57.64
81230;BME280;70701;44.452;18.652;2024-03-02T09:12:47;98400.25;;;12.98;56.54
81230;BME280;70701;44.452;18.652;2024-03-02T09:15:13;98392.97;;;13.10;55.80
81230;BME280;70701;44.452;18.652;2024-03-02T09:17:38;98385.66;;;13.13;55.16
81230;BME280;70701;44.452;18.652;2024-03-02T09:20:05;98391.72;;;13.02;55.23
81230;BME280;70701;44.452;18.652;2024-03-02T09:22:31;98397.00;;;13.09;54.86
81230;BME280;70701;44.452;18.652;2024-03-02T09:24:57;98392.16;;;13.19;54.42
81230;BME280;70701;44.452;18.652;2024-03-02T09:27:23;98391.66;;;13.39;54.87
81230;BME280;70701;44.452;18.652;2024-03-02T09:29:49;98383.53;;;13.50;54.33
81230;BME280;70701;44.452;18.652;2024-03-02T09:32:15;98386.25;;;13.69;53.60
81230;BME280;70701;44.452;18.652;2024-03-02T09:34:41;98385.00;;;13.70;52.20
81230;BME280;70701;44.452;18.652;2024-03-02T09:37:07;98378.94;;;13.71;50.24
81230;BME280;70701;44.452;18.652;2024-03-02T09:39:33;98382.63;;;13.77;50.34
81230;BME280;70701;44.452;18.652;2024-03-02T09:42:03;98377.78;;;13.87;49.41
81230;BME280;70701;44.452;18.652;2024-03-02T09:44:29;98385.63;;;13.98;48.78
81230;BME280;70701;44.452;18.652;2024-03-02T09:46:55;98374.78;;;13.91;48.79
81230;BME280;70701;44.452;18.652;2024-03-02T09:49:21;98367.94;;;13.92;47.99
81230;BME280;70701;44.452;18.652;2024-03-02T09:51:48;98379.25;;;14.22;47.32
81230;BME280;70701;44.452;18.652;2024-03-02T09:54:15;98376.81;;;14.14;47.78
81230;BME280;70701;44.452;18.652;2024-03-02T09:56:41;98367.28;;;14.21;48.73
81230;BME280;70701;44.452;18.652;2024-03-02T09:59:08;98374.25;;;14.26;49.12
81230;BME280;70701;44.452;18.652;2024-03-02T10:01:34;98374.25;;;14.26;48.63
81230;BME280;70701;44.452;18.652;2024-03-02T10:04:00;98371.66;;;14.37;48.91
81230;BME280;70701;44.452;18.652;2024-03-02T10:06:28;98373.53;;;14.40;48.31
81230;BME280;70701;44.452;18.652;2024-03-02T10:08:55;98371.72;;;14.52;47.56
81230;BME280;70701;44.452;18.652;2024-03-02T10:11:39;98368.97;;;14.67;46.91
81230;BME280;70701;44.452;18.652;2024-03-02T10:16:41;98368.19;;;14.66;45.94
81230;BME280;70701;44.452;18.652;2024-03-02T10:19:21;98368.59;;;14.74;45.47
81230;BME280;70701;44.452;18.652;2024-03-02T10:22:08;98369.84;;;14.88;45.41
81230;BME280;70701;44.452;18.652;2024-03-02T10:24:41;98365.03;;;14.73;46.30
81230;BME280;70701;44.452;18.652;2024-03-02T10:27:23;98364.63;;;14.81;46.13
81230;BME280;70701;44.452;18.652;2024-03-02T10:29:49;98361.75;;;15.05;44.51
81230;BME280;70701;44.452;18.652;2024-03-02T10:32:15;98360.69;;;15.17;43.05
81230;BME280;70701;44.452;18.652;2024-03-02T10:34:44;98366.88;;;15.21;42.81
81230;BME280;70701;44.452;18.652;2024-03-02T10:37:11;98360.59;;;15.26;42.94
81230;BME280;70701;44.452;18.652;2024-03-02T10:39:37;98341.81;;;15.18;42.22
81230;BME280;70701;44.452;18.652;2024-03-02T10:42:06;98350.31;;;15.08;42.31
81230;BME280;70701;44.452;18.652;2024-03-02T10:44:32;98353.69;;;15.27;42.16
81230;BME280;70701;44.452;18.652;2024-03-02T10:47:04;98350.41;;;15.29;41.77
81230;BME280;70701;44.452;18.652;2024-03-02T10:49:31;98346.34;;;15.45;40.98
81230;BME280;70701;44.452;18.652;2024-03-02T10:51:58;98343.69;;;15.56;41.17
81230;BME280;70701;44.452;18.652;2024-03-02T10:54:24;98347.19;;;15.51;40.78
81230;BME280;70701;44.452;18.652;2024-03-02T10:57:02;98348.81;;;15.58;40.63
81230;BME280;70701;44.452;18.652;2024-03-02T10:59:34;98347.84;;;15.61;40.92
81230;BME280;70701;44.452;18.652;2024-03-02T11:02:02;98314.69;;;15.44;40.67
81230;BME280;70701;44.452;18.652;2024-03-02T11:04:29;98338.94;;;15.62;40.70
81230;BME280;70701;44.452;18.652;2024-03-02T11:07:04;98333.47;;;15.88;40.46
81230;BME280;70701;44.452;18.652;2024-03-02T11:09:32;98336.69;;;15.81;40.59
81230;BME280;70701;44.452;18.652;2024-03-02T11:12:22;98337.03;;;16.09;40.32
81230;BME280;70701;44.452;18.652;2024-03-02T11:14:50;98332.41;;;16.06;39.89
81230;BME280;70701;44.452;18.652;2024-03-02T11:17:17;98332.59;;;16.03;39.58
81230;BME280;70701;44.452;18.652;2024-03-02T11:19:44;98328.44;;;15.78;39.86
81230;BME280;70701;44.452;18.652;2024-03-02T11:22:12;98323.47;;;15.87;40.58
81230;BME280;70701;44.452;18.652;2024-03-02T11:24:38;98320.88;;;16.04;39.84
81230;BME280;70701;44.452;18.652;2024-03-02T11:27:06;98323.91;;;16.21;39.70
81230;BME280;70701;44.452;18.652;2024-03-02T11:29:42;98316.44;;;16.39;39.67
81230;BME280;70701;44.452;18.652;2024-03-02T11:32:17;98313.03;;;16.81;47.38
81230;BME280;70701;44.452;18.652;2024-03-02T11:34:46;98314.28;;;17.01;45.40
81230;BME280;70701;44.452;18.652;2024-03-02T11:37:13;98287.88;;;16.46;40.06
81230;BME280;70701;44.452;18.652;2024-03-02T11:39:43;98316.47;;;16.18;40.51
81230;BME280;70701;44.452;18.652;2024-03-02T11:42:11;98302.34;;;16.12;40.01
81230;BME280;70701;44.452;18.652;2024-03-02T11:44:37;98309.34;;;16.23;40.11
81230;BME280;70701;44.452;18.652;2024-03-02T11:47:08;98304.53;;;16.49;40.47
81230;BME280;70701;44.452;18.652;2024-03-02T11:49:41;98304.56;;;16.29;39.99
81230;BME280;70701;44.452;18.652;2024-03-02T11:52:09;98308.44;;;16.31;40.18
81230;BME280;70701;44.452;18.652;2024-03-02T11:54:38;98303.13;;;15.92;40.37
81230;BME280;70701;44.452;18.652;2024-03-02T11:57:16;98315.25;;;16.04;39.75
81230;BME280;70701;44.452;18.652;2024-03-02T11:59:43;98305.78;;;16.22;39.68
81230;BME280;70701;44.452;18.652;2024-03-02T12:02:19;98305.00;;;16.42;39.73
81230;BME280;70701;44.452;18.652;2024-03-02T12:04:46;98303.88;;;16.34;39.79
81230;BME280;70701;44.452;18.652;2024-03-02T12:07:23;98299.94;;;16.46;39.13
81230;BME280;70701;44.452;18.652;2024-03-02T12:09:59;98295.63;;;16.51;39.36
81230;BME280;70701;44.452;18.652;2024-03-02T12:12:26;98300.72;;;16.26;39.44
81230;BME280;70701;44.452;18.652;2024-03-02T12:14:53;98298.13;;;16.23;39.73
81230;BME280;70701;44.452;18.652;2024-03-02T12:17:21;98293.91;;;16.33;39.37
81230;BME280;70701;44.452;18.652;2024-03-02T12:19:47;98296.47;;;16.37;39.26
81230;BME280;70701;44.452;18.652;2024-03-02T12:22:13;98295.13;;;16.52;39.02
81230;BME280;70701;44.452;18.652;2024-03-02T12:24:39;98292.31;;;16.79;38.75
81230;BME280;70701;44.452;18.652;2024-03-02T12:27:06;98290.94;;;16.95;38.51
81230;BME280;70701;44.452;18.652;2024-03-02T12:29:32;98281.81;;;16.79;38.43
81230;BME280;70701;44.452;18.652;2024-03-02T12:31:58;98288.00;;;16.57;38.47
81230;BME280;70701;44.452;18.652;2024-03-02T12:34:24;98283.81;;;16.47;38.77
81230;BME280;70701;44.452;18.652;2024-03-02T12:36:51;98282.16;;;16.61;38.95
81230;BME280;70701;44.452;18.652;2024-03-02T12:39:21;98281.19;;;16.64;38.86
81230;BME280;70701;44.452;18.652;2024-03-02T12:41:49;98251.50;;;16.37;39.27
81230;BME280;70701;44.452;18.652;2024-03-02T12:44:22;98271.13;;;16.57;38.85
81230;BME280;70701;44.452;18.652;2024-03-02T12:46:47;98275.66;;;16.75;38.83
81230;BME280;70701;44.452;18.652;2024-03-02T12:49:14;98265.06;;;16.64;38.32
81230;BME280;70701;44.452;18.652;2024-03-02T12:51:48;98281.13;;;16.84;38.26
81230;BME280;70701;44.452;18.652;2024-03-02T12:54:17;98272.13;;;16.80;38.65
81230;BME280;70701;44.452;18.652;2024-03-02T12:56:43;98281.50;;;16.71;38.42
81230;BME280;70701;44.452;18.652;2024-03-02T12:59:20;98267.66;;;16.68;38.31
81230;BME280;70701;44.452;18.652;2024-03-02T13:01:53;98271.06;;;16.78;38.22
81230;BME280;70701;44.452;18.652;2024-03-02T13:04:27;98273.00;;;16.66;38.43
81230;BME280;70701;44.452;18.652;2024-03-02T13:06:56;98276.59;;;16.66;38.57